Time;durP1;ratioP1;P1;durP2;ratioP2;P2;SDS_P1;SDS_P2;PMS_P1;PMS_P2;Temp;Humidity;BMP_temperature;BMP_pressure;BME280_temperature;BME280_humidity;BME280_pressure;Samples;Min_cycle;Max_cycle;Signal;HPM_P1;HPM_P2
2022/08/28 00:00:52;;;;;;;13.63;3.55;;;;;;;16.24;75.18;98930.28;5040881;28;20451;-81
2022/08/28 00:03:17;;;;;;;6.15;3.42;;;;;;;15.77;74.52;98897.81;5053715;28;20384;-83
2022/08/28 00:05:43;;;;;;;16.70;4.13;;;;;;;15.93;74.92;98933.50;5079435;28;20038;-80
2022/08/28 00:08:11;;;;;;;14.90;4.55;;;;;;;16.39;73.76;98926.63;5064785;28;20033;-81
2022/08/28 00:10:38;;;;;;;9.82;3.65;;;;;;;16.32;74.07;98924.28;5066694;28;20043;-81
2022/08/28 00:13:12;;;;;;;13.80;5.68;;;;;;;15.90;74.60;98936.78;5059761;28;20569;-80
2022/08/28 00:15:38;;;;;;;12.75;3.10;;;;;;;16.55;74.20;98927.34;5061972;28;20053;-83
2022/08/28 00:18:04;;;;;;;10.10;3.50;;;;;;;16.64;72.50;98936.41;5060019;28;20031;-81
2022/08/28 00:20:32;;;;;;;14.77;3.88;;;;;;;16.47;73.26;98931.41;5056823;28;20028;-81
2022/08/28 00:22:59;;;;;;;8.73;3.08;;;;;;;17.15;73.09;98932.03;5061427;28;20050;-81
2022/08/28 00:25:26;;;;;;;17.15;4.32;;;;;;;16.61;72.09;98910.81;5045562;28;20029;-82
2022/08/28 00:27:57;;;;;;;9.93;3.92;;;;;;;16.03;73.46;98925.34;5053126;28;20032;-81
2022/08/28 00:30:36;;;;;;;8.60;3.92;;;;;;;15.98;73.98;98907.34;5061442;28;20032;-81
2022/08/28 00:33:26;;;;;;;12.93;4.50;;;;;;;15.87;74.27;98938.13;5044770;28;20107;-80
2022/08/28 00:35:52;;;;;;;11.80;4.50;;;;;;;15.97;73.91;98924.56;5063588;28;20070;-81
2022/08/28 00:38:19;;;;;;;11.65;3.90;;;;;;;16.37;72.58;98937.72;5049153;28;20029;-81
2022/08/28 00:40:48;;;;;;;14.18;3.83;;;;;;;16.03;73.52;98918.06;5065970;28;20059;-81
2022/08/28 00:43:37;;;;;;;14.23;4.32;;;;;;;15.92;73.90;98940.78;5062763;28;20475;-81
2022/08/28 00:46:10;;;;;;;16.75;4.47;;;;;;;15.73;74.03;98932.56;5065288;28;20032;-82
2022/08/28 00:48:36;;;;;;;11.73;5.38;;;;;;;16.04;73.76;98929.63;5063910;28;20046;-81
2022/08/28 00:53:48;;;;;;;18.17;5.40;;;;;;;16.15;73.31;98939.25;5061350;28;20047;-82
2022/08/28 00:56:15;;;;;;;15.07;4.55;;;;;;;15.93;74.03;98942.38;5057780;28;20033;-81
2022/08/28 00:58:43;;;;;;;13.52;4.40;;;;;;;16.60;71.89;98940.75;5066516;28;20052;-81
2022/08/28 01:01:11;;;;;;;15.27;4.82;;;;;;;16.04;73.75;98954.69;5048100;28;20028;-80
2022/08/28 01:03:36;;;;;;;12.05;4.75;;;;;;;15.78;74.33;98942.50;5045062;28;20032;-81
2022/08/28 01:06:03;;;;;;;21.05;4.57;;;;;;;16.20;73.26;98940.03;5060276;28;20086;-81
2022/08/28 01:08:29;;;;;;;11.98;4.30;;;;;;;16.45;73.65;98937.09;5059860;28;20115;-81
2022/08/28 01:10:58;;;;;;;17.23;4.32;;;;;;;16.13;73.33;98949.50;5057006;28;20036;-81
2022/08/28 01:13:25;;;;;;;15.57;4.03;;;;;;;15.99;73.56;98957.41;5054748;28;20040;-81
2022/08/28 01:15:52;;;;;;;9.07;3.63;;;;;;;15.60;74.65;98965.47;5061643;28;20078;-80
2022/08/28 01:18:18;;;;;;;9.25;4.00;;;;;;;15.80;74.05;98920.66;5064061;28;20043;-80
2022/08/28 01:21:16;;;;;;;22.77;4.85;;;;;;;15.56;74.46;98942.91;5074525;28;20027;-81
2022/08/28 01:23:47;;;;;;;10.30;3.83;;;;;;;15.99;75.21;98957.41;5053350;28;20048;-82
2022/08/28 01:26:13;;;;;;;13.43;4.32;;;;;;;16.69;70.40;98952.50;5063610;28;20036;-82
2022/08/28 01:28:39;;;;;;;12.10;4.65;;;;;;;16.68;70.26;98926.66;5047486;28;20468;-80
2022/08/28 01:31:09;;;;;;;17.67;5.68;;;;;;;16.73;72.39;98932.00;5058226;28;20404;-81
2022/08/28 01:33:34;;;;;;;10.48;4.30;;;;;;;16.37;70.21;98944.97;5062549;28;20063;-81
2022/08/28 01:36:00;;;;;;;18.95;5.50;;;;;;;15.90;71.70;98953.69;5062971;28;20032;-81
2022/08/28 01:38:26;;;;;;;19.95;5.13;;;;;;;16.28;70.95;98963.66;5028374;28;20086;-81
2022/08/28 01:40:56;;;;;;;8.75;4.47;;;;;;;16.23;70.92;98957.47;5065722;28;20051;-81
2022/08/28 01:43:25;;;;;;;13.13;5.25;;;;;;;16.00;71.92;98944.75;5062679;28;20110;-82
2022/08/28 01:45:54;;;;;;;19.05;4.70;;;;;;;16.09;73.41;98967.31;5047779;28;20032;-81
2022/08/28 01:48:22;;;;;;;23.75;5.82;;;;;;;16.37;70.69;98966.53;5060344;28;20392;-81
2022/08/28 01:50:48;;;;;;;16.20;5.53;;;;;;;15.82;72.14;98975.03;5057717;28;20488;-81
2022/08/28 01:53:16;;;;;;;16.10;5.43;;;;;;;16.08;71.49;98946.84;5063500;28;20039;-81
2022/08/28 01:55:43;;;;;;;13.57;4.72;;;;;;;16.60;71.80;98965.81;5029359;28;20036;-82
2022/08/28 01:58:10;;;;;;;19.67;5.30;;;;;;;15.99;71.40;98954.72;5061214;28;20029;-81
2022/08/28 02:00:36;;;;;;;12.05;4.50;;;;;;;16.59;70.57;98966.09;5040369;28;20169;-81
2022/08/28 02:03:02;;;;;;;18.42;6.13;;;;;;;16.68;70.95;98980.56;5047081;28;20071;-81
2022/08/28 02:05:31;;;;;;;17.20;4.93;;;;;;;16.40;70.06;98964.06;5062150;28;20029;-81
2022/08/28 02:07:58;;;;;;;17.55;5.25;;;;;;;16.89;68.93;98955.00;5057733;28;20511;-81
2022/08/28 02:10:26;;;;;;;16.73;5.38;;;;;;;17.34;69.67;98973.34;5059682;28;20033;-81
2022/08/28 02:12:54;;;;;;;24.70;6.05;;;;;;;16.49;69.83;98978.53;5064772;28;20047;-81
2022/08/28 02:15:21;;;;;;;10.75;5.13;;;;;;;15.76;72.14;98971.56;5065621;28;20028;-81
2022/08/28 02:17:47;;;;;;;17.88;6.07;;;;;;;15.64;73.91;98987.25;5058397;28;20539;-81
2022/08/28 02:20:13;;;;;;;14.88;6.10;;;;;;;16.36;71.48;98956.84;5048558;28;20031;-81
2022/08/28 02:22:38;;;;;;;16.80;5.00;;;;;;;17.11;70.07;98974.16;5052097;28;20028;-81
2022/08/28 02:25:06;;;;;;;18.98;6.40;;;;;;;16.26;71.28;98971.22;5064939;28;20041;-81
2022/08/28 02:27:31;;;;;;;15.80;5.07;;;;;;;17.21;70.29;98963.28;5050874;28;20028;-81
2022/08/28 02:29:57;;;;;;;13.20;5.28;;;;;;;17.48;69.29;98966.16;5051345;28;20078;-81
2022/08/28 02:32:24;;;;;;;19.80;5.82;;;;;;;16.43;70.62;98974.28;5063831;28;20025;-81
2022/08/28 02:34:50;;;;;;;13.82;6.13;;;;;;;16.67;70.85;98960.06;5067901;28;20048;-81
2022/08/28 02:37:15;;;;;;;17.95;5.75;;;;;;;16.78;70.84;98959.69;5063161;28;20025;-81
2022/08/28 02:39:41;;;;;;;20.23;6.97;;;;;;;16.49;70.53;98986.63;5068615;28;20031;-81
2022/08/28 02:42:06;;;;;;;23.55;6.22;;;;;;;16.47;70.61;98977.22;5070881;28;20040;-81
2022/08/28 02:44:32;;;;;;;18.45;5.97;;;;;;;16.04;71.57;98970.03;5068826;28;20044;-81
2022/08/28 02:46:57;;;;;;;20.95;6.18;;;;;;;16.31;71.44;98986.53;5050579;28;20039;-81
2022/08/28 02:49:22;;;;;;;18.27;5.68;;;;;;;16.19;72.46;98984.19;5050678;28;20036;-81
2022/08/28 02:51:49;;;;;;;13.98;6.07;;;;;;;15.89;73.37;98983.59;5065063;28;20036;-81
2022/08/28 02:54:14;;;;;;;17.23;5.18;;;;;;;15.73;73.01;98972.13;5052647;28;20025;-81
2022/08/28 02:56:40;;;;;;;13.85;4.78;;;;;;;16.23;72.29;98963.69;5068751;28;20043;-81
2022/08/28 02:59:05;;;;;;;20.88;6.90;;;;;;;15.36;75.28;98969.06;5047612;28;20032;-82
2022/08/28 03:01:32;;;;;;;21.58;5.93;;;;;;;15.26;74.57;98964.56;5042286;28;20583;-81
2022/08/28 03:04:01;;;;;;;15.55;5.85;;;;;;;15.00;74.92;98982.63;5047071;28;20036;-81
2022/08/28 03:06:27;;;;;;;17.52;6.47;;;;;;;15.17;75.42;98985.03;5062563;28;20025;-81
2022/08/28 03:08:53;;;;;;;16.65;6.68;;;;;;;15.38;74.78;98986.53;5064289;28;20024;-81
2022/08/28 03:11:19;;;;;;;13.10;5.10;;;;;;;15.54;73.73;98988.13;5060918;28;20039;-81
2022/08/28 03:13:44;;;;;;;21.80;5.32;;;;;;;15.02;75.96;98991.25;5066973;28;20033;-82
2022/08/28 03:16:10;;;;;;;19.55;6.43;;;;;;;15.67;73.80;98968.66;5065206;28;20078;-81
2022/08/28 03:18:36;;;;;;;10.48;5.00;;;;;;;17.28;68.70;98974.50;5061125;28;20071;-82
2022/08/28 03:21:02;;;;;;;30.38;7.32;;;;;;;16.03;71.24;98969.22;5059021;28;20143;-81
2022/08/28 03:23:27;;;;;;;16.73;5.18;;;;;;;16.58;71.32;98994.94;5057702;28;20025;-81
2022/08/28 03:26:03;;;;;;;19.30;5.75;;;;;;;16.12;72.19;99004.47;5062054;28;20116;-82
2022/08/28 03:28:39;;;;;;;13.13;5.45;;;;;;;16.92;69.01;98987.59;5065234;28;20047;-81
2022/08/28 03:31:06;;;;;;;11.15;5.80;;;;;;;16.63;70.70;98994.06;5066319;28;20143;-82
2022/08/28 03:33:32;;;;;;;17.85;5.57;;;;;;;17.00;69.18;98996.94;5049613;28;20404;-81
2022/08/28 03:35:58;;;;;;;11.35;4.97;;;;;;;17.76;66.82;98984.13;5064408;28;20052;-81
2022/08/28 03:38:24;;;;;;;13.73;5.25;;;;;;;18.08;65.73;98993.41;5040702;28;20021;-82
2022/08/28 03:40:50;;;;;;;12.02;4.75;;;;;;;18.07;65.74;98987.19;5064087;28;20396;-81
2022/08/28 03:43:19;;;;;;;10.50;4.70;;;;;;;18.12;65.59;98962.81;5064914;28;20025;-81
2022/08/28 03:45:57;;;;;;;10.13;5.00;;;;;;;18.53;64.65;98995.41;5057866;28;20021;-81
2022/08/28 03:48:24;;;;;;;11.63;4.45;;;;;;;18.01;65.59;98987.56;5062839;28;20093;-81
2022/08/28 03:50:52;;;;;;;12.68;5.25;;;;;;;18.38;64.48;98972.13;5063807;28;20032;-81
2022/08/28 03:53:19;;;;;;;9.55;4.10;;;;;;;18.52;63.65;98970.25;5055436;28;20051;-81
2022/08/28 03:55:45;;;;;;;14.07;5.95;;;;;;;18.15;64.75;98994.63;5045012;28;20032;-82
2022/08/28 03:58:10;;;;;;;16.05;4.75;;;;;;;18.32;64.85;98983.31;5049184;28;20063;-81
2022/08/28 04:00:36;;;;;;;13.05;4.72;;;;;;;18.09;65.18;99000.41;5045760;28;20024;-81
2022/08/28 04:03:03;;;;;;;12.65;5.10;;;;;;;18.14;65.43;99003.84;5063801;28;20028;-81
2022/08/28 04:05:28;;;;;;;16.17;5.38;;;;;;;18.31;64.68;98998.72;5058318;28;20068;-81
2022/08/28 04:07:54;;;;;;;14.90;6.47;;;;;;;18.23;64.50;98999.38;5048741;28;20114;-81
2022/08/28 04:10:19;;;;;;;9.52;4.68;;;;;;;18.29;64.82;99000.09;5042503;28;20033;-81
2022/08/28 04:12:44;;;;;;;11.35;4.38;;;;;;;18.17;64.09;98997.06;5057024;28;20519;-81
2022/08/28 04:15:11;;;;;;;13.57;5.05;;;;;;;18.18;65.14;99006.75;5050305;28;20415;-81
2022/08/28 04:17:38;;;;;;;12.05;4.65;;;;;;;18.02;65.18;99013.50;5057287;28;20036;-81
2022/08/28 04:20:06;;;;;;;12.48;4.75;;;;;;;18.17;63.95;98991.66;5057737;28;20031;-81
2022/08/28 04:22:32;;;;;;;14.60;5.15;;;;;;;18.30;64.06;99001.72;5068400;28;20104;-81
2022/08/28 04:24:57;;;;;;;16.42;5.13;;;;;;;18.03;64.66;99013.19;5068201;28;20194;-82
2022/08/28 04:27:23;;;;;;;10.80;4.32;;;;;;;18.22;64.33;99002.38;5070368;28;20024;-81
2022/08/28 04:29:48;;;;;;;9.45;4.38;;;;;;;18.18;63.90;99002.16;5047783;28;20052;-81
2022/08/28 04:32:14;;;;;;;9.82;4.32;;;;;;;18.16;64.32;99000.84;5049308;28;20516;-81
2022/08/28 04:34:39;;;;;;;14.32;5.38;;;;;;;17.80;64.96;99004.06;5069524;28;20391;-81
2022/08/28 04:37:05;;;;;;;11.82;4.18;;;;;;;17.66;65.88;98997.78;5059448;28;20060;-81
2022/08/28 04:39:31;;;;;;;10.88;4.57;;;;;;;18.06;64.52;99012.63;5056936;28;20443;-81
2022/08/28 04:41:57;;;;;;;11.70;5.07;;;;;;;18.17;64.28;99018.69;5068044;28;20068;-81
2022/08/28 04:44:22;;;;;;;12.25;4.05;;;;;;;18.13;64.22;99009.56;5061863;28;20064;-81
2022/08/28 04:46:48;;;;;;;12.25;4.22;;;;;;;18.19;63.91;98997.56;5049303;28;20035;-81
2022/08/28 04:49:14;;;;;;;11.20;4.53;;;;;;;18.23;64.33;99009.38;5029701;28;20032;-81
2022/08/28 04:51:40;;;;;;;9.63;5.20;;;;;;;17.94;64.84;99020.34;5035460;28;20032;-80
2022/08/28 04:54:06;;;;;;;10.77;4.35;;;;;;;17.72;65.82;99029.03;5051384;28;20039;-81
2022/08/28 04:56:33;;;;;;;12.55;5.07;;;;;;;17.91;65.05;99026.31;5054110;28;20033;-81
2022/08/28 04:59:02;;;;;;;6.07;4.40;;;;;;;17.93;65.13;99006.03;5067185;28;20366;-81
2022/08/28 05:01:29;;;;;;;11.18;4.40;;;;;;;18.13;64.05;99023.06;5069847;28;20111;-81
2022/08/28 05:03:58;;;;;;;13.73;5.20;;;;;;;18.13;64.78;99031.16;5045309;28;20066;-81
2022/08/28 05:06:25;;;;;;;9.70;4.18;;;;;;;18.08;64.70;99036.63;5066084;28;20028;-81
2022/08/28 05:09:00;;;;;;;11.70;4.78;;;;;;;18.10;65.14;99029.03;5071247;28;20037;-81
2022/08/28 05:11:28;;;;;;;7.32;4.30;;;;;;;18.07;64.77;99032.31;5067440;28;20111;-82
2022/08/28 05:13:54;;;;;;;9.07;4.45;;;;;;;17.65;65.90;99017.78;5057688;28;20029;-81
2022/08/28 05:16:20;;;;;;;11.48;4.60;;;;;;;18.07;65.36;99032.31;5052111;28;20037;-81
2022/08/28 05:18:47;;;;;;;11.05;5.57;;;;;;;18.05;65.21;99026.41;5064946;28;20025;-81
2022/08/28 05:21:15;;;;;;;14.43;4.35;;;;;;;18.28;64.67;99039.81;5065799;28;20111;-82
2022/08/28 05:23:41;;;;;;;11.00;5.13;;;;;;;18.14;64.82;99036.28;5061412;28;20036;-81
2022/08/28 05:26:14;;;;;;;11.57;4.22;;;;;;;17.83;65.45;99035.91;5065911;28;20472;-81
2022/08/28 05:28:40;;;;;;;16.23;5.65;;;;;;;17.69;65.96;99026.09;5066577;28;20115;-81
2022/08/28 05:31:16;;;;;;;13.35;5.05;;;;;;;17.84;66.19;99050.22;5070080;28;20443;-81
2022/08/28 05:33:43;;;;;;;11.48;4.47;;;;;;;18.17;65.33;99053.78;5042886;28;20044;-81
2022/08/28 05:36:10;;;;;;;9.52;4.35;;;;;;;17.88;66.25;99060.13;5063277;28;21905;-81
2022/08/28 05:38:36;;;;;;;11.43;4.40;;;;;;;18.08;65.22;99026.63;5060565;28;20029;-82
2022/08/28 05:41:02;;;;;;;11.32;4.95;;;;;;;18.25;65.10;99043.13;5062243;28;20033;-81
2022/08/28 05:43:28;;;;;;;9.27;4.05;;;;;;;18.10;65.10;99034.44;5046832;28;20035;-82
2022/08/28 05:45:58;;;;;;;15.45;5.53;;;;;;;17.63;67.11;99049.66;5081944;28;20092;-81
2022/08/28 05:48:30;;;;;;;15.77;4.88;;;;;;;17.96;65.65;99045.97;5063508;28;20064;-81
2022/08/28 05:50:57;;;;;;;15.55;5.60;;;;;;;18.24;64.85;99044.22;5066457;28;20151;-81
2022/08/28 05:53:24;;;;;;;15.85;4.68;;;;;;;18.24;64.89;99051.53;5062008;28;20032;-81
2022/08/28 05:55:50;;;;;;;12.30;5.32;;;;;;;17.63;67.16;99040.75;5056429;28;20093;-81
2022/08/28 05:58:28;;;;;;;12.15;5.65;;;;;;;18.20;65.43;99061.28;5061861;28;20025;-81
2022/08/28 06:00:54;;;;;;;15.23;5.32;;;;;;;18.15;65.38;99053.28;5060850;28;20033;-81
2022/08/28 06:03:20;;;;;;;10.80;4.68;;;;;;;17.62;66.94;99056.16;5053766;28;20032;-81
2022/08/28 06:05:45;;;;;;;9.50;5.05;;;;;;;17.25;67.49;99002.06;5068543;28;20058;-81
2022/08/28 06:08:11;;;;;;;11.75;4.70;;;;;;;18.28;65.34;99068.78;5053704;28;20092;-81
2022/08/28 06:10:43;;;;;;;11.77;5.75;;;;;;;17.47;67.31;99048.22;5071079;28;20040;-81
2022/08/28 06:13:09;;;;;;;12.85;5.70;;;;;;;17.97;66.17;99060.28;5062181;28;20031;-80
2022/08/28 06:15:40;;;;;;;8.30;4.82;;;;;;;17.87;66.69;99060.41;5069397;28;20468;-81
2022/08/28 06:18:06;;;;;;;9.52;4.63;;;;;;;17.80;66.34;99049.97;5056228;28;20047;-81
2022/08/28 06:20:36;;;;;;;16.75;5.32;;;;;;;18.27;65.09;99054.44;5052245;28;20495;-81
2022/08/28 06:23:01;;;;;;;12.40;4.72;;;;;;;18.10;65.30;99047.94;5060383;28;20039;-81
2022/08/28 06:25:27;;;;;;;10.70;5.05;;;;;;;17.96;65.94;99055.97;5064797;28;20040;-81
2022/08/28 06:27:52;;;;;;;16.63;5.13;;;;;;;17.87;66.26;99050.41;5045582;28;20029;-81
2022/08/28 06:30:18;;;;;;;12.23;5.35;;;;;;;18.35;64.85;99052.97;5065118;28;20041;-81
2022/08/28 06:32:43;;;;;;;16.50;5.47;;;;;;;17.63;66.62;99055.03;5048600;28;20031;-81
2022/08/28 06:35:08;;;;;;;12.95;5.35;;;;;;;18.16;66.00;99069.19;5050560;28;20029;-81
2022/08/28 06:37:34;;;;;;;9.98;4.32;;;;;;;18.45;64.89;99067.19;5037889;28;20024;-81
2022/08/28 06:40:00;;;;;;;14.30;5.20;;;;;;;18.47;65.09;99083.91;5049493;28;20431;-81
2022/08/28 06:42:27;;;;;;;15.93;5.57;;;;;;;17.61;66.36;99064.53;5066629;28;20041;-81
2022/08/28 06:44:52;;;;;;;14.82;4.65;;;;;;;18.53;64.45;99071.09;5061395;28;20436;-81
2022/08/28 06:47:17;;;;;;;9.85;4.82;;;;;;;18.65;64.59;99068.75;5054177;28;20025;-81
2022/08/28 06:49:43;;;;;;;13.70;5.32;;;;;;;18.35;64.94;99061.06;5056536;28;20034;-81
2022/08/28 06:52:08;;;;;;;12.68;5.25;;;;;;;18.37;64.33;99067.78;5030385;28;20039;-81
2022/08/28 06:54:33;;;;;;;9.45;4.20;;;;;;;18.52;64.80;99075.69;5060981;28;20037;-81
2022/08/28 06:56:59;;;;;;;12.23;4.93;;;;;;;18.56;64.09;99048.88;5060512;28;20120;-81
2022/08/28 06:59:25;;;;;;;12.50;5.13;;;;;;;18.40;64.69;99074.50;5038018;28;20040;-81
2022/08/28 07:01:53;;;;;;;8.35;4.43;;;;;;;18.01;65.84;99074.00;5067143;28;20024;-81
2022/08/28 07:04:20;;;;;;;12.38;4.85;;;;;;;17.66;65.70;98995.09;5074832;28;20045;-81
2022/08/28 07:06:48;;;;;;;9.90;4.75;;;;;;;17.43;66.31;99049.84;5073705;28;20047;-81
2022/08/28 07:09:14;;;;;;;15.27;5.03;;;;;;;17.62;66.90;99053.47;5072806;28;20084;-81
2022/08/28 07:11:42;;;;;;;13.30;4.38;;;;;;;18.54;64.97;99086.25;5051849;28;20067;-81
2022/08/28 07:14:08;;;;;;;16.45;5.47;;;;;;;17.76;65.75;99021.94;5063753;28;20036;-81
2022/08/28 07:16:39;;;;;;;10.32;4.43;;;;;;;17.78;66.38;99062.94;5055044;28;20112;-81
2022/08/28 07:19:12;;;;;;;9.82;4.57;;;;;;;17.72;66.13;99082.22;5072001;28;20044;-81
2022/08/28 07:21:43;;;;;;;7.55;4.32;;;;;;;18.28;65.43;99084.97;5072595;28;20047;-82
2022/08/28 07:24:11;;;;;;;13.98;5.53;;;;;;;18.25;65.92;99074.75;5074865;28;20082;-81
2022/08/28 07:26:42;;;;;;;12.43;3.92;;;;;;;18.05;65.92;99067.72;5071474;28;20020;-81
2022/08/28 07:29:16;;;;;;;14.20;4.82;;;;;;;17.43;67.81;99086.84;5069526;28;20028;-81
2022/08/28 07:31:44;;;;;;;13.68;5.00;;;;;;;17.22;67.31;99088.94;5063829;28;20033;-81
2022/08/28 07:34:12;;;;;;;17.90;6.43;;;;;;;15.93;67.84;99082.38;5070111;28;20055;-82
2022/08/28 07:36:39;;;;;;;15.63;4.70;;;;;;;16.15;66.57;99079.28;5069660;28;20028;-82
2022/08/28 07:39:05;;;;;;;12.55;4.90;;;;;;;15.67;68.51;99078.19;5068431;28;20417;-83
2022/08/28 07:41:32;;;;;;;10.15;4.03;;;;;;;17.82;66.67;99088.28;5052865;28;20400;-83
2022/08/28 07:46:43;;;;;;;15.40;5.53;;;;;;;17.36;66.84;99067.50;5067745;28;20108;-83
2022/08/28 07:49:09;;;;;;;9.27;4.25;;;;;;;18.31;63.51;99097.88;5063157;28;20075;-82
2022/08/28 07:51:35;;;;;;;17.02;5.05;;;;;;;18.09;64.03;99103.06;5059148;28;20052;-83
2022/08/28 07:54:02;;;;;;;14.63;4.88;;;;;;;18.02;63.70;99087.22;5065093;28;20485;-83
2022/08/28 07:56:29;;;;;;;13.18;5.18;;;;;;;18.54;62.93;99102.47;5026749;28;20037;-83
2022/08/28 07:58:56;;;;;;;9.43;4.75;;;;;;;18.48;62.40;99095.50;5063750;28;20065;-83
2022/08/28 08:01:22;;;;;;;15.05;4.82;;;;;;;17.83;63.23;99098.00;5064873;28;20112;-83
2022/08/28 08:03:48;;;;;;;13.48;4.90;;;;;;;17.42;65.78;99102.25;5057057;28;20025;-83
2022/08/28 08:06:15;;;;;;;15.25;6.32;;;;;;;18.26;63.60;99097.97;5044789;28;20038;-83
2022/08/28 08:08:40;;;;;;;14.13;5.00;;;;;;;17.98;62.96;99087.00;5060530;28;20039;-83
2022/08/28 08:11:10;;;;;;;14.48;5.07;;;;;;;17.74;64.59;99104.31;5069863;28;20043;-83
2022/08/28 08:13:37;;;;;;;12.43;4.40;;;;;;;18.51;62.12;99084.09;5060034;28;20040;-83
2022/08/28 08:16:11;;;;;;;13.02;4.45;;;;;;;18.60;61.89;99088.56;5050637;28;20040;-83
2022/08/28 08:18:38;;;;;;;11.18;4.25;;;;;;;18.82;60.98;99109.56;5065079;28;20028;-83
2022/08/28 08:21:06;;;;;;;9.65;3.58;;;;;;;18.75;60.76;99089.41;5060095;28;20036;-83
2022/08/28 08:23:37;;;;;;;17.95;4.53;;;;;;;18.13;61.81;99094.09;5063797;28;20111;-83
2022/08/28 08:26:05;;;;;;;12.50;3.80;;;;;;;18.06;62.44;99099.06;5062254;28;20044;-83
2022/08/28 08:28:33;;;;;;;13.52;3.50;;;;;;;17.66;61.95;99092.28;5070744;28;20039;-81
2022/08/28 08:31:13;;;;;;;9.48;3.33;;;;;;;17.04;63.52;99119.34;5064412;28;20023;-81
2022/08/28 08:33:44;;;;;;;10.02;3.40;;;;;;;16.77;64.97;99124.44;5067107;28;20043;-81
2022/08/28 08:36:11;;;;;;;13.52;3.75;;;;;;;18.06;62.48;99114.47;5068559;28;20036;-81
2022/08/28 08:38:37;;;;;;;12.05;5.15;;;;;;;17.62;62.93;99103.94;5065117;28;20048;-81
2022/08/28 08:41:27;;;;;;;14.15;4.10;;;;;;;17.89;63.01;99104.13;5072350;28;20036;-81
2022/08/28 08:44:08;;;;;;;9.48;3.42;;;;;;;18.48;62.63;99114.41;5061246;28;20033;-81
2022/08/28 08:46:43;;;;;;;8.60;3.33;;;;;;;18.26;61.19;99114.97;5066314;28;20039;-82
2022/08/28 08:49:20;;;;;;;9.02;3.92;;;;;;;18.90;60.80;99116.19;5069434;28;20073;-81
2022/08/28 08:52:03;;;;;;;11.13;3.60;;;;;;;18.63;61.43;99119.63;5064326;28;20024;-81
2022/08/28 08:54:30;;;;;;;10.55;4.15;;;;;;;18.94;60.54;99109.91;5064032;28;20384;-81
2022/08/28 08:56:56;;;;;;;13.82;3.90;;;;;;;18.51;60.80;99120.06;5063751;28;20059;-82
2022/08/28 08:59:29;;;;;;;10.32;4.00;;;;;;;19.21;59.48;99117.28;5049603;28;20602;-82
2022/08/28 09:02:09;;;;;;;10.25;3.30;;;;;;;19.10;59.68;99118.56;5053366;28;20067;-81
2022/08/28 09:04:47;;;;;;;13.07;3.20;;;;;;;19.12;58.73;99113.66;5062016;28;20079;-81
2022/08/28 09:07:18;;;;;;;9.88;3.88;;;;;;;18.43;60.79;99115.28;5060962;28;20020;-82
2022/08/28 09:09:49;;;;;;;8.55;3.30;;;;;;;17.68;62.45;99124.38;5080188;28;20757;-82
2022/08/28 09:12:19;;;;;;;12.25;3.83;;;;;;;17.93;62.67;99116.78;5047093;28;20028;-82
2022/08/28 09:15:09;;;;;;;11.05;3.53;;;;;;;18.24;62.08;99097.47;5058891;28;20032;-82
2022/08/28 09:17:53;;;;;;;9.30;3.72;;;;;;;18.89;60.42;99106.50;5058088;28;20119;-82
2022/08/28 09:20:26;;;;;;;8.98;3.70;;;;;;;19.19;59.45;99095.94;5060715;28;20357;-82
2022/08/28 09:22:52;;;;;;;9.10;3.58;;;;;;;18.97;60.77;99125.56;5064250;28;20089;-81
2022/08/28 09:25:43;;;;;;;9.50;3.58;;;;;;;19.30;59.62;99119.03;5046759;28;20029;-81
2022/08/28 09:28:09;;;;;;;10.63;3.97;;;;;;;19.23;59.45;99123.19;5058537;28;20032;-81
2022/08/28 09:30:36;;;;;;;12.57;3.50;;;;;;;19.10;59.23;99103.13;5055376;28;20697;-81
2022/08/28 09:33:02;;;;;;;14.18;3.40;;;;;;;18.24;61.91;99116.38;5055418;28;20028;-81
2022/08/28 09:35:29;;;;;;;14.57;3.78;;;;;;;18.71;60.97;99124.34;5061853;28;20044;-81
2022/08/28 09:38:14;;;;;;;9.25;3.15;;;;;;;19.22;59.83;99113.50;5063205;28;20048;-81
2022/08/28 09:43:26;;;;;;;17.98;3.55;;;;;;;18.63;59.37;99109.59;5062264;28;20047;-81
2022/08/28 09:46:13;;;;;;;10.05;3.30;;;;;;;18.58;61.97;99134.03;5048462;28;20043;-81
2022/08/28 09:48:42;;;;;;;;;;;;;;;18.66;60.37;99124.44;5065759;28;20037;-80
2022/08/28 09:51:19;;;;;;;13.38;3.85;;;;;;;17.98;62.86;99126.72;5042030;28;19999;-81
2022/08/28 09:53:51;;;;;;;10.13;3.63;;;;;;;18.91;59.41;99128.63;5072789;28;20389;-80
2022/08/28 09:56:32;;;;;;;13.07;3.95;;;;;;;18.58;60.13;99109.69;5066669;28;20119;-80
2022/08/28 09:59:13;;;;;;;10.57;4.07;;;;;;;19.53;57.99;99130.78;5060738;28;20055;-80
2022/08/28 10:02:00;;;;;;;12.85;3.50;;;;;;;19.85;58.45;99129.91;5068841;28;20032;-80
2022/08/28 10:04:51;;;;;;;11.10;3.30;;;;;;;19.23;59.41;99123.19;5059785;28;20507;-81
2022/08/28 10:07:39;;;;;;;12.27;4.22;;;;;;;19.38;58.19;99118.34;5059845;28;20020;-81
2022/08/28 10:10:35;;;;;;;13.52;3.47;;;;;;;20.00;56.84;99133.13;5067333;28;20032;-80
2022/08/28 10:13:27;;;;;;;10.65;2.67;;;;;;;20.35;56.83;99130.78;5064591;28;20035;-80
2022/08/28 10:16:22;;;;;;;10.45;3.35;;;;;;;19.55;56.59;99136.72;5060152;28;20067;-80
2022/08/28 10:18:55;;;;;;;9.98;3.63;;;;;;;18.81;58.92;99132.28;5051087;28;20099;-80
2022/08/28 10:21:49;;;;;;;10.13;3.55;;;;;;;18.68;59.56;99131.16;5063659;28;20025;-80
2022/08/28 10:24:38;;;;;;;8.00;3.10;;;;;;;19.93;57.95;99135.44;5066760;28;20025;-80
2022/08/28 10:27:16;;;;;;;10.85;3.60;;;;;;;20.66;56.04;99132.47;5061445;28;20034;-80
2022/08/28 10:29:52;;;;;;;8.95;3.53;;;;;;;20.29;57.04;99127.34;5071856;28;20020;-80
2022/08/28 10:32:23;;;;;;;10.40;3.90;;;;;;;20.71;55.49;99131.56;5067718;28;20020;-81
2022/08/28 10:35:04;;;;;;;11.18;3.40;;;;;;;20.32;55.16;99129.47;5068269;28;20424;-81
2022/08/28 10:38:10;;;;;;;9.45;3.80;;;;;;;20.08;55.47;99126.16;5063201;28;20377;-81
2022/08/28 10:41:01;;;;;;;8.05;3.35;;;;;;;20.67;55.02;99120.53;5067646;28;20488;-81
2022/08/28 10:43:45;;;;;;;7.55;3.88;;;;;;;20.62;54.18;99114.44;5065259;28;20113;-81
2022/08/28 10:46:32;;;;;;;11.65;4.47;;;;;;;20.68;53.26;99105.88;5057430;28;20510;-80
2022/08/28 10:49:05;;;;;;;7.60;3.22;;;;;;;21.30;53.17;99112.19;5070652;28;20029;-80
2022/08/28 10:51:42;;;;;;;7.30;3.58;;;;;;;21.57;53.25;99117.44;5050215;28;20029;-81
2022/08/28 10:54:37;;;;;;;6.18;3.65;;;;;;;21.33;52.11;99124.34;5067165;28;20024;-81
2022/08/28 10:57:07;;;;;;;8.95;3.45;;;;;;;21.92;52.24;99109.41;5037102;28;20072;-81
2022/08/28 10:59:33;;;;;;;7.25;3.25;;;;;;;21.64;52.07;99123.19;5070296;28;20063;-81
2022/08/28 11:02:02;;;;;;;8.38;3.75;;;;;;;21.04;51.82;99107.69;5055406;28;20029;-81
2022/08/28 11:04:28;;;;;;;11.32;3.20;;;;;;;20.34;53.64;99121.84;5056330;28;20126;-81
2022/08/28 11:07:10;;;;;;;7.43;2.65;;;;;;;21.17;52.85;99117.69;5072013;28;20104;-81
2022/08/28 11:09:44;;;;;;;12.52;3.15;;;;;;;21.63;52.69;99127.03;5070613;28;20027;-81
2022/08/28 11:12:16;;;;;;;13.18;3.40;;;;;;;20.98;53.25;99123.31;5051209;28;20044;-81
2022/08/28 11:14:44;;;;;;;13.73;4.13;;;;;;;21.30;52.76;99123.03;5063116;28;20025;-81
2022/08/28 11:17:26;;;;;;;6.00;2.80;;;;;;;21.94;52.46;99127.00;5050847;28;20028;-81
2022/08/28 11:20:19;;;;;;;6.57;3.15;;;;;;;22.40;51.67;99126.44;5068312;28;20399;-81
2022/08/28 11:22:47;;;;;;;10.63;3.17;;;;;;;22.32;51.75;99116.38;5053340;28;20047;-81
2022/08/28 11:25:22;;;;;;;7.85;3.58;;;;;;;22.54;50.53;99107.25;5068235;28;20496;-81
2022/08/28 11:28:13;;;;;;;11.15;3.65;;;;;;;21.04;52.88;99124.00;5047729;28;20085;-81
2022/08/28 11:30:39;;;;;;;11.48;3.65;;;;;;;21.68;51.66;99104.34;5062895;28;20032;-80
2022/08/28 11:33:39;;;;;;;8.25;3.47;;;;;;;22.72;50.53;99111.59;5050580;28;20059;-81
2022/08/28 11:36:20;;;;;;;11.65;3.50;;;;;;;23.03;50.53;99120.38;5061785;28;20369;-81
2022/08/28 11:38:55;;;;;;;8.98;3.45;;;;;;;23.23;49.70;99114.25;5067369;28;20033;-81
2022/08/28 11:41:25;;;;;;;7.07;3.53;;;;;;;23.33;49.41;99108.47;5067413;28;20028;-80
2022/08/28 11:44:02;;;;;;;6.95;2.85;;;;;;;23.36;49.32;99098.84;5066122;28;20380;-81
2022/08/28 11:46:32;;;;;;;8.15;3.20;;;;;;;23.42;49.70;99095.63;5064930;28;20028;-81
2022/08/28 11:49:01;;;;;;;7.97;3.38;;;;;;;23.55;49.08;99110.94;5080272;28;20021;-81